createdAt,value
2022-08-06T00:00:27.790Z,17.30
2022-08-06T00:02:56.140Z,17.30
2022-08-06T00:05:30.095Z,17.20
2022-08-06T00:08:06.292Z,17.30
2022-08-06T00:10:36.740Z,17.00
2022-08-06T00:13:05.528Z,16.60
2022-08-06T00:16:09.615Z,16.30
2022-08-06T00:18:30.468Z,16.40
2022-08-06T00:20:58.734Z,16.30
2022-08-06T00:23:28.840Z,16.40
2022-08-06T00:26:18.974Z,16.50
2022-08-06T00:28:48.382Z,16.50
2022-08-06T00:31:16.448Z,16.20
2022-08-06T00:33:57.536Z,16.10
2022-08-06T00:36:28.313Z,15.90
2022-08-06T00:38:57.803Z,15.70
2022-08-06T00:41:42.431Z,15.50
2022-08-06T00:44:30.808Z,15.30
2022-08-06T00:46:59.782Z,15.20
2022-08-06T00:49:49.631Z,15.10
2022-08-06T00:52:19.152Z,15.10
2022-08-06T00:54:49.853Z,15.10
2022-08-06T01:05:34.073Z,14.90
2022-08-06T01:11:29.081Z,14.70
2022-08-06T01:14:05.574Z,14.50
2022-08-06T01:16:40.671Z,14.40
2022-08-06T01:21:22.088Z,14.30
2022-08-06T01:22:55.089Z,14.20
2022-08-06T01:26:07.084Z,14.10
2022-08-06T01:28:44.391Z,14.30
2022-08-06T01:31:20.329Z,14.30
2022-08-06T01:33:52.518Z,14.50
2022-08-06T01:36:28.336Z,14.50
2022-08-06T01:39:01.342Z,14.50
2022-08-06T01:41:54.802Z,14.50
2022-08-06T01:44:32.813Z,14.50
2022-08-06T01:47:16.383Z,14.60
2022-08-06T01:50:01.867Z,14.60
2022-08-06T01:52:36.552Z,14.60
2022-08-06T01:55:13.013Z,14.70
2022-08-06T01:58:19.202Z,14.80
2022-08-06T02:00:37.848Z,14.70
2022-08-06T02:03:24.846Z,14.70
2022-08-06T02:05:58.083Z,14.60
2022-08-06T02:08:39.000Z,14.70
2022-08-06T02:12:02.001Z,14.70
2022-08-06T02:14:03.025Z,14.70
2022-08-06T02:16:42.149Z,14.80
2022-08-06T02:19:15.671Z,14.80
2022-08-06T02:21:50.306Z,14.80
2022-08-06T02:24:23.575Z,14.80
2022-08-06T02:26:53.518Z,14.80
2022-08-06T02:29:23.542Z,14.80
2022-08-06T02:31:56.075Z,14.70
2022-08-06T02:34:31.345Z,14.70
2022-08-06T02:37:08.067Z,14.70
2022-08-06T02:39:51.245Z,14.70
2022-08-06T02:42:29.073Z,14.60
2022-08-06T02:45:03.195Z,14.60
2022-08-06T02:47:55.929Z,14.70
2022-08-06T02:50:33.291Z,14.70
2022-08-06T02:53:08.652Z,14.60
2022-08-06T02:55:56.893Z,14.60
2022-08-06T02:58:38.652Z,14.70
2022-08-06T03:01:21.701Z,14.60
2022-08-06T03:03:59.377Z,14.60
2022-08-06T03:06:31.156Z,14.70
2022-08-06T03:09:01.365Z,14.60
2022-08-06T03:11:34.419Z,14.50
2022-08-06T03:14:32.449Z,14.60
2022-08-06T03:16:58.463Z,14.50
2022-08-06T03:19:53.940Z,14.50
2022-08-06T03:22:36.190Z,14.60
2022-08-06T03:25:10.792Z,14.70
2022-08-06T03:27:43.126Z,14.70
2022-08-06T03:30:31.801Z,14.60
2022-08-06T03:33:41.880Z,14.70
2022-08-06T03:36:07.527Z,14.60
2022-08-06T03:38:42.229Z,14.60
2022-08-06T03:41:12.306Z,14.60
2022-08-06T03:44:02.961Z,14.60
2022-08-06T03:46:36.164Z,14.70
2022-08-06T03:49:07.372Z,14.60
2022-08-06T03:51:52.931Z,14.60
2022-08-06T03:54:31.910Z,14.50
2022-08-06T03:57:08.515Z,14.50
2022-08-06T03:59:43.877Z,14.60
2022-08-06T04:02:36.569Z,14.50
2022-08-06T04:05:16.686Z,14.50
2022-08-06T04:07:54.242Z,14.60
2022-08-06T04:10:33.165Z,14.50
2022-08-06T04:13:38.950Z,14.50
2022-08-06T04:15:55.628Z,14.50
2022-08-06T04:18:28.631Z,14.50
2022-08-06T04:21:19.477Z,14.60
2022-08-06T04:23:50.053Z,14.60
2022-08-06T04:26:24.801Z,14.60
2022-08-06T04:28:58.097Z,14.50
2022-08-06T04:32:13.116Z,14.50
2022-08-06T04:34:21.414Z,14.40
2022-08-06T04:36:56.088Z,14.40
2022-08-06T04:39:49.433Z,14.60
2022-08-06T04:42:16.089Z,14.60
2022-08-06T04:44:45.255Z,14.70
2022-08-06T04:47:15.219Z,14.70
2022-08-06T04:50:02.244Z,14.70
2022-08-06T04:52:47.939Z,14.80
2022-08-06T04:55:24.817Z,14.80
2022-08-06T04:58:08.477Z,14.90
2022-08-06T05:01:01.074Z,14.90
2022-08-06T05:04:07.271Z,14.90
2022-08-06T05:06:25.623Z,14.60
2022-08-06T05:08:58.905Z,14.70
2022-08-06T05:11:34.738Z,14.70
2022-08-06T05:14:15.164Z,14.70
2022-08-06T05:16:53.475Z,14.70
2022-08-06T05:19:45.427Z,14.70
2022-08-06T05:22:51.881Z,14.80
2022-08-06T05:25:17.857Z,14.80
2022-08-06T05:28:04.271Z,14.90
2022-08-06T05:30:45.258Z,14.90
2022-08-06T05:33:26.637Z,14.80
2022-08-06T05:36:04.711Z,15.00
2022-08-06T05:38:36.462Z,15.20
2022-08-06T05:41:08.058Z,15.10
2022-08-06T05:44:00.117Z,14.90
2022-08-06T05:46:31.837Z,15.00
2022-08-06T05:49:18.121Z,15.00
2022-08-06T05:51:59.983Z,15.00
2022-08-06T05:54:34.916Z,15.10
2022-08-06T05:57:07.529Z,15.30
2022-08-06T05:59:57.850Z,15.40
2022-08-06T06:02:31.148Z,15.40
2022-08-06T06:06:07.236Z,15.70
2022-08-06T06:08:09.384Z,15.60
2022-08-06T06:10:43.714Z,15.80
2022-08-06T06:13:24.676Z,15.70
2022-08-06T06:16:04.803Z,15.70
2022-08-06T06:18:53.858Z,15.30
2022-08-06T06:21:34.646Z,15.70
2022-08-06T06:24:10.868Z,15.60
2022-08-06T06:26:48.326Z,15.80
2022-08-06T06:30:05.718Z,15.70
2022-08-06T06:32:42.730Z,15.30
2022-08-06T06:35:25.483Z,15.40
2022-08-06T06:38:14.037Z,15.00
2022-08-06T06:41:00.123Z,15.30
2022-08-06T06:43:44.087Z,15.20
2022-08-06T06:46:37.353Z,15.30
2022-08-06T06:49:58.962Z,15.40
2022-08-06T06:52:11.452Z,15.30
2022-08-06T06:54:45.617Z,15.50
2022-08-06T06:57:20.240Z,15.40
2022-08-06T07:00:04.673Z,15.50
2022-08-06T07:02:46.752Z,15.70
2022-08-06T07:06:02.045Z,15.90
2022-08-06T07:08:10.918Z,15.80
2022-08-06T07:10:44.400Z,15.70
2022-08-06T07:13:15.382Z,15.70
2022-08-06T07:15:45.030Z,16.00
2022-08-06T07:18:28.408Z,15.90
2022-08-06T07:21:03.746Z,16.60
2022-08-06T07:24:06.362Z,16.80
2022-08-06T07:26:25.906Z,16.80
2022-08-06T07:29:03.283Z,17.00
2022-08-06T07:31:36.362Z,17.30
2022-08-06T07:34:09.460Z,17.40
2022-08-06T07:36:55.446Z,17.40
2022-08-06T07:39:28.917Z,17.40
2022-08-06T07:42:10.764Z,17.50
2022-08-06T07:44:56.455Z,17.60
2022-08-06T07:47:46.598Z,17.60
2022-08-06T07:50:23.709Z,17.70
2022-08-06T07:52:55.637Z,17.80
2022-08-06T07:55:26.454Z,17.80
2022-08-06T07:58:05.796Z,18.00
2022-08-06T08:00:38.401Z,18.20
2022-08-06T08:03:55.756Z,18.20
2022-08-06T08:06:23.121Z,18.40
2022-08-06T08:08:56.881Z,18.30
2022-08-06T08:12:03.686Z,18.20
2022-08-06T08:14:19.104Z,18.30
2022-08-06T08:16:49.022Z,18.40
2022-08-06T08:19:25.246Z,18.50
2022-08-06T08:21:54.447Z,18.70
2022-08-06T08:24:25.878Z,18.70
2022-08-06T08:27:12.487Z,18.70
2022-08-06T08:29:54.594Z,18.80
2022-08-06T08:32:23.823Z,19.00
2022-08-06T08:34:54.407Z,19.00
2022-08-06T08:37:24.342Z,19.20
2022-08-06T08:39:56.330Z,19.20
2022-08-06T08:42:31.828Z,19.10
2022-08-06T08:45:02.098Z,19.10
2022-08-06T08:47:46.634Z,19.20
2022-08-06T08:50:22.390Z,19.30
2022-08-06T08:52:53.200Z,19.40
2022-08-06T08:57:02.275Z,19.40
2022-08-06T08:58:41.583Z,19.60
2022-08-06T09:01:09.984Z,19.70
2022-08-06T09:04:03.486Z,19.70
2022-08-06T09:06:37.229Z,19.80
2022-08-06T09:09:15.743Z,19.70
2022-08-06T09:12:04.289Z,19.70
2022-08-06T09:14:34.767Z,19.90
2022-08-06T09:17:04.862Z,20.10
2022-08-06T09:19:37.790Z,20.20
2022-08-06T09:22:11.849Z,20.00
2022-08-06T09:24:41.201Z,20.20
2022-08-06T09:27:59.200Z,20.30
2022-08-06T09:30:11.581Z,20.40
2022-08-06T09:32:56.664Z,20.50
2022-08-06T09:35:44.787Z,20.50
2022-08-06T09:38:18.101Z,20.60
2022-08-06T09:41:06.890Z,20.60
2022-08-06T09:44:04.431Z,20.50
2022-08-06T09:46:41.556Z,20.60
2022-08-06T09:49:50.564Z,20.60
2022-08-06T09:52:17.196Z,20.70
2022-08-06T09:54:46.845Z,20.80
2022-08-06T09:57:33.285Z,20.90
2022-08-06T10:00:14.261Z,21.10
2022-08-06T10:02:45.707Z,21.10
2022-08-06T10:05:20.272Z,21.10
2022-08-06T10:07:52.314Z,21.20
2022-08-06T10:10:40.435Z,21.30
2022-08-06T10:13:19.491Z,21.30
2022-08-06T10:16:01.840Z,21.30
2022-08-06T10:18:56.783Z,21.50
2022-08-06T10:21:41.247Z,21.50
2022-08-06T10:24:12.755Z,21.20
2022-08-06T10:26:44.788Z,21.20
2022-08-06T10:29:14.619Z,21.50
2022-08-06T10:31:46.675Z,21.60
2022-08-06T10:34:29.948Z,21.70
2022-08-06T10:37:07.902Z,21.60
2022-08-06T10:40:07.466Z,21.50
2022-08-06T10:42:40.066Z,21.60
2022-08-06T10:45:12.891Z,21.70
2022-08-06T10:48:56.710Z,22.00
2022-08-06T10:50:43.582Z,22.00
2022-08-06T10:53:20.641Z,22.00
2022-08-06T10:56:06.467Z,22.00
2022-08-06T10:58:39.031Z,21.90
2022-08-06T11:01:11.387Z,22.00
2022-08-06T11:04:00.791Z,21.90
2022-08-06T11:07:00.150Z,21.90
2022-08-06T11:10:04.409Z,22.10
2022-08-06T11:12:52.031Z,22.00
2022-08-06T11:15:22.810Z,22.20
2022-08-06T11:17:53.120Z,21.90
2022-08-06T11:20:41.660Z,22.00
2022-08-06T11:23:52.846Z,22.20
2022-08-06T11:26:36.503Z,22.40
2022-08-06T11:29:08.962Z,22.50
2022-08-06T11:31:53.173Z,22.50
2022-08-06T11:34:51.111Z,22.40
2022-08-06T11:38:03.892Z,22.50
2022-08-06T11:41:05.873Z,22.50
2022-08-06T11:44:07.664Z,22.60
2022-08-06T11:46:43.059Z,22.90
2022-08-06T11:49:19.783Z,23.10
2022-08-06T11:51:59.598Z,23.20
2022-08-06T11:54:36.047Z,23.30
2022-08-06T11:57:41.508Z,23.10
2022-08-06T12:00:18.153Z,23.20
2022-08-06T12:03:00.567Z,23.20
2022-08-06T12:05:35.898Z,23.10
2022-08-06T12:08:42.268Z,23.10
2022-08-06T12:11:37.164Z,23.10
2022-08-06T12:14:47.302Z,23.20
2022-08-06T12:17:20.012Z,23.40
2022-08-06T12:20:02.316Z,23.60
2022-08-06T12:22:32.955Z,23.80
2022-08-06T12:25:10.800Z,23.50
2022-08-06T12:27:50.403Z,23.10
2022-08-06T12:30:36.591Z,23.10
2022-08-06T12:33:15.471Z,23.10
2022-08-06T12:35:53.348Z,23.20
2022-08-06T12:38:24.938Z,23.50
2022-08-06T12:40:57.521Z,23.40
2022-08-06T12:43:43.413Z,23.50
2022-08-06T12:46:19.432Z,23.50
2022-08-06T12:48:51.188Z,23.60
2022-08-06T12:51:26.031Z,23.60
2022-08-06T12:53:58.697Z,23.60
2022-08-06T12:56:32.662Z,23.70
2022-08-06T12:59:15.946Z,23.70
2022-08-06T13:02:06.919Z,23.70
2022-08-06T13:04:44.700Z,23.60
2022-08-06T13:07:14.397Z,23.80
2022-08-06T13:10:08.403Z,23.90
2022-08-06T13:14:02.585Z,24.00
2022-08-06T13:15:24.189Z,23.80
2022-08-06T13:18:13.121Z,23.90
2022-08-06T13:20:57.081Z,23.90
2022-08-06T13:23:34.521Z,23.70
2022-08-06T13:26:23.383Z,23.60
2022-08-06T13:30:33.281Z,23.70
2022-08-06T13:32:19.630Z,23.60
2022-08-06T13:34:59.445Z,23.60
2022-08-06T13:37:56.432Z,23.70
2022-08-06T13:40:57.153Z,23.80
2022-08-06T13:43:42.985Z,24.00
2022-08-06T13:46:27.314Z,23.90
2022-08-06T13:48:58.604Z,23.80
2022-08-06T13:51:29.016Z,23.70
2022-08-06T13:53:58.918Z,23.70
2022-08-06T13:56:29.718Z,23.60
2022-08-06T13:58:59.784Z,23.60
2022-08-06T14:01:44.209Z,23.70
2022-08-06T14:04:13.821Z,23.80
2022-08-06T14:06:44.792Z,23.90
2022-08-06T14:09:19.226Z,24.00
2022-08-06T14:11:51.414Z,24.10
2022-08-06T14:14:21.792Z,24.10
2022-08-06T14:16:51.732Z,24.00
2022-08-06T14:20:14.431Z,23.90
2022-08-06T14:22:12.165Z,23.80
2022-08-06T14:24:40.446Z,23.70
2022-08-06T14:27:15.789Z,23.90
2022-08-06T14:30:27.801Z,23.90
2022-08-06T14:32:33.381Z,24.00
2022-08-06T14:35:04.449Z,23.90
2022-08-06T14:37:49.682Z,23.90
2022-08-06T14:41:01.227Z,23.80
2022-08-06T14:43:55.887Z,23.80
2022-08-06T14:46:30.458Z,23.80
2022-08-06T14:49:00.421Z,24.00
2022-08-06T14:51:37.802Z,24.00
2022-08-06T14:54:19.755Z,23.90
2022-08-06T14:57:16.188Z,23.80
2022-08-06T14:59:49.000Z,23.70
2022-08-06T15:02:24.887Z,23.60
2022-08-06T15:04:54.160Z,23.60
2022-08-06T15:07:26.913Z,23.70
2022-08-06T15:10:06.161Z,23.70
2022-08-06T15:12:49.869Z,23.70
2022-08-06T15:15:24.061Z,23.70
2022-08-06T15:18:25.297Z,23.60
2022-08-06T15:20:53.850Z,23.50
2022-08-06T15:23:23.115Z,23.60
2022-08-06T15:26:46.886Z,23.50
2022-08-06T15:28:49.375Z,23.50
2022-08-06T15:31:17.895Z,23.50
2022-08-06T15:33:49.245Z,23.50
2022-08-06T15:36:17.540Z,23.50
2022-08-06T15:38:47.444Z,23.40
2022-08-06T15:41:18.248Z,23.30
2022-08-06T15:43:51.297Z,23.30
2022-08-06T15:46:28.625Z,23.30
2022-08-06T15:48:59.799Z,23.50
2022-08-06T15:51:31.297Z,23.50
2022-08-06T15:54:00.504Z,23.50
2022-08-06T15:56:51.194Z,23.60
2022-08-06T15:59:21.100Z,23.60
2022-08-06T16:01:52.557Z,23.50
2022-08-06T16:04:32.132Z,23.50
2022-08-06T16:07:05.806Z,23.40
2022-08-06T16:09:40.424Z,23.50
2022-08-06T16:12:24.380Z,23.60
2022-08-06T16:14:57.229Z,23.40
2022-08-06T16:17:52.797Z,23.40
2022-08-06T16:20:20.984Z,23.50
2022-08-06T16:22:52.760Z,23.60
2022-08-06T16:25:23.693Z,23.70
2022-08-06T16:27:53.414Z,23.60
2022-08-06T16:30:23.553Z,23.70
2022-08-06T16:32:51.811Z,23.80
2022-08-06T16:35:21.776Z,23.90
2022-08-06T16:37:53.072Z,23.90
2022-08-06T16:40:26.213Z,23.90
2022-08-06T16:42:56.725Z,23.90
2022-08-06T16:48:25.449Z,24.20
2022-08-06T16:51:02.078Z,24.40
2022-08-06T16:54:11.878Z,24.40
2022-08-06T16:56:19.490Z,24.30
2022-08-06T16:58:52.914Z,24.10
2022-08-06T17:02:15.697Z,24.00
2022-08-06T17:04:21.663Z,24.10
2022-08-06T17:07:00.328Z,24.00
2022-08-06T17:09:28.949Z,24.10
2022-08-06T17:12:16.465Z,24.20
2022-08-06T17:17:37.080Z,24.50
2022-08-06T17:20:07.858Z,24.50
2022-08-06T17:22:36.543Z,24.50
2022-08-06T17:25:06.793Z,24.30
2022-08-06T17:27:57.700Z,24.20
2022-08-06T17:30:28.092Z,24.20
2022-08-06T17:32:56.188Z,24.20
2022-08-06T17:36:32.362Z,24.10
2022-08-06T17:41:01.302Z,24.00
2022-08-06T17:43:56.418Z,24.00
2022-08-06T17:46:30.519Z,24.00
2022-08-06T17:49:07.567Z,23.90
2022-08-06T17:51:36.128Z,23.80
2022-08-06T17:54:44.154Z,23.80
2022-08-06T17:56:57.985Z,23.70
2022-08-06T17:59:31.746Z,23.60
2022-08-06T18:02:02.548Z,23.60
2022-08-06T18:04:33.087Z,23.50
2022-08-06T18:07:10.750Z,23.60
2022-08-06T18:10:10.140Z,23.60
2022-08-06T18:12:29.446Z,23.40
2022-08-06T18:14:59.558Z,23.30
2022-08-06T18:17:47.239Z,23.20
2022-08-06T18:20:28.331Z,23.00
2022-08-06T18:23:02.880Z,22.80
2022-08-06T18:25:54.867Z,22.60
2022-08-06T18:28:31.855Z,22.50
2022-08-06T18:31:09.864Z,22.20
2022-08-06T18:33:46.483Z,22.10
2022-08-06T18:36:33.070Z,22.00
2022-08-06T18:39:02.187Z,21.90
2022-08-06T18:41:33.131Z,21.80
2022-08-06T18:44:02.037Z,21.60
2022-08-06T18:46:56.285Z,21.50
2022-08-06T18:49:32.511Z,21.40
2022-08-06T18:52:22.964Z,21.30
2022-08-06T18:54:56.910Z,21.20
2022-08-06T18:57:38.095Z,21.20
2022-08-06T19:00:19.178Z,21.20
2022-08-06T19:02:50.215Z,21.10
2022-08-06T19:05:26.749Z,21.00
2022-08-06T19:07:58.591Z,20.80
2022-08-06T19:10:29.507Z,20.70
2022-08-06T19:12:59.532Z,20.60
2022-08-06T19:15:45.823Z,20.50
2022-08-06T19:18:18.138Z,20.40
2022-08-06T19:20:48.748Z,20.50
2022-08-06T19:23:21.678Z,20.40
2022-08-06T19:26:12.251Z,20.40
2022-08-06T19:28:50.002Z,20.30
2022-08-06T19:31:41.275Z,20.30
2022-08-06T19:34:14.088Z,20.20
2022-08-06T19:36:48.634Z,20.10
2022-08-06T19:39:52.862Z,20.10
2022-08-06T19:42:31.962Z,20.10
2022-08-06T19:45:03.922Z,20.00
2022-08-06T19:47:47.743Z,20.00
2022-08-06T19:50:16.668Z,19.90
2022-08-06T19:52:48.847Z,19.80
2022-08-06T19:56:05.894Z,19.80
2022-08-06T19:58:26.769Z,19.70
2022-08-06T20:01:04.959Z,19.70
2022-08-06T20:03:52.381Z,19.60
2022-08-06T20:06:29.986Z,19.50
2022-08-06T20:09:29.387Z,19.40
2022-08-06T20:12:02.510Z,19.30
2022-08-06T20:14:34.656Z,19.20
2022-08-06T20:17:04.256Z,19.10
2022-08-06T20:20:07.237Z,19.00
2022-08-06T20:22:21.411Z,19.00
2022-08-06T20:24:50.931Z,18.90
2022-08-06T20:27:20.224Z,18.70
2022-08-06T20:30:09.592Z,18.70
2022-08-06T20:32:41.236Z,18.60
2022-08-06T20:35:13.399Z,18.60
2022-08-06T20:37:44.547Z,18.60
2022-08-06T20:40:37.496Z,18.50
2022-08-06T20:44:04.654Z,18.50
2022-08-06T20:46:02.614Z,18.50
2022-08-06T20:48:30.773Z,18.40
2022-08-06T20:50:59.319Z,18.40
2022-08-06T20:53:31.878Z,18.30
2022-08-06T20:56:03.161Z,18.30
2022-08-06T20:58:32.603Z,18.20
2022-08-06T21:01:01.268Z,18.20
2022-08-06T21:05:16.279Z,18.10
2022-08-06T21:06:22.486Z,18.00
2022-08-06T21:08:51.650Z,18.00
2022-08-06T21:11:23.513Z,17.90
2022-08-06T21:13:59.810Z,17.90
2022-08-06T21:16:34.160Z,17.90
2022-08-06T21:19:03.407Z,17.90
2022-08-06T21:21:37.991Z,17.80
2022-08-06T21:24:08.527Z,17.80
2022-08-06T21:26:38.474Z,17.80
2022-08-06T21:30:07.007Z,17.70
2022-08-06T21:31:57.077Z,17.60
2022-08-06T21:34:26.066Z,17.70
2022-08-06T21:36:55.863Z,17.70
2022-08-06T21:39:30.331Z,17.60
2022-08-06T21:42:13.933Z,17.70
2022-08-06T21:44:42.300Z,17.60
2022-08-06T21:47:14.896Z,17.60
2022-08-06T21:49:58.692Z,17.50
2022-08-06T21:52:33.887Z,17.50
2022-08-06T21:56:35.233Z,17.40
2022-08-06T21:58:03.051Z,17.40
2022-08-06T22:00:47.406Z,17.30
2022-08-06T22:04:51.463Z,17.30
2022-08-06T22:06:22.594Z,17.30
2022-08-06T22:08:59.271Z,17.30
2022-08-06T22:12:39.010Z,17.20
2022-08-06T22:14:28.947Z,17.10
2022-08-06T22:17:05.141Z,17.10
2022-08-06T22:19:34.605Z,17.10
2022-08-06T22:22:08.091Z,17.00
2022-08-06T22:24:36.943Z,17.00
2022-08-06T22:27:06.129Z,17.00
2022-08-06T22:29:50.016Z,17.00
2022-08-06T22:32:21.480Z,17.00
2022-08-06T22:34:52.627Z,16.90
2022-08-06T22:38:15.361Z,16.90
2022-08-06T22:40:10.068Z,16.80
2022-08-06T22:42:56.232Z,16.70
2022-08-06T22:46:00.832Z,16.60
2022-08-06T22:48:34.864Z,16.60
2022-08-06T22:51:06.033Z,16.60
2022-08-06T22:54:28.728Z,16.60
2022-08-06T22:56:28.744Z,16.50
2022-08-06T22:59:05.809Z,16.40
2022-08-06T23:02:07.995Z,16.50
2022-08-06T23:04:37.561Z,16.40
2022-08-06T23:07:14.853Z,16.40
2022-08-06T23:10:06.553Z,16.40
2022-08-06T23:12:45.085Z,16.30
2022-08-06T23:15:39.609Z,16.20
2022-08-06T23:18:33.092Z,16.10
2022-08-06T23:21:26.470Z,16.10
2022-08-06T23:24:15.015Z,16.00
2022-08-06T23:26:43.671Z,16.00
2022-08-06T23:29:12.022Z,15.90
2022-08-06T23:31:41.195Z,16.00
2022-08-06T23:34:33.751Z,16.00
2022-08-06T23:37:00.904Z,16.00
2022-08-06T23:39:38.899Z,15.90
2022-08-06T23:42:08.717Z,15.90
2022-08-06T23:44:52.020Z,15.90
2022-08-06T23:47:53.713Z,15.90
2022-08-06T23:50:11.646Z,15.80
2022-08-06T23:52:41.905Z,15.80
2022-08-06T23:55:25.962Z,15.70
2022-08-06T23:57:57.606Z,15.70
